createdAt,value
2022-12-16T00:01:28.187Z,98731.00
2022-12-16T00:04:00.161Z,98759.00
2022-12-16T00:06:35.182Z,98747.00
2022-12-16T00:09:03.491Z,98740.00
2022-12-16T00:11:34.091Z,98743.00
2022-12-16T00:14:07.600Z,98743.00
2022-12-16T00:16:37.145Z,98741.00
2022-12-16T00:19:07.517Z,98742.00
2022-12-16T00:21:36.496Z,98745.00
2022-12-16T00:24:04.767Z,98752.00
2022-12-16T00:26:34.268Z,98750.00
2022-12-16T00:29:05.341Z,98756.00
2022-12-16T00:31:33.663Z,98756.00
2022-12-16T00:34:04.179Z,98746.00
2022-12-16T00:36:33.674Z,98734.00
2022-12-16T00:39:04.069Z,98741.00
2022-12-16T00:41:33.780Z,98744.00
2022-12-16T00:44:01.969Z,98755.00
2022-12-16T00:46:32.092Z,98752.00
2022-12-16T00:49:01.430Z,98757.00
2022-12-16T00:51:36.939Z,98775.00
2022-12-16T00:54:06.358Z,98758.00
2022-12-16T00:56:34.367Z,98769.00
2022-12-16T00:59:02.843Z,98769.00
2022-12-16T01:01:33.263Z,98762.00
2022-12-16T01:04:01.778Z,98774.00
2022-12-16T01:06:29.767Z,98770.00
2022-12-16T01:08:59.093Z,98777.00
2022-12-16T01:11:27.077Z,98774.00
2022-12-16T01:13:56.253Z,98770.00
2022-12-16T01:16:25.389Z,98768.00
2022-12-16T01:18:58.867Z,98773.00
2022-12-16T01:21:29.209Z,98780.00
2022-12-16T01:23:59.984Z,98783.00
2022-12-16T01:26:30.240Z,98774.00
2022-12-16T01:29:00.585Z,98764.00
2022-12-16T01:31:30.046Z,98777.00
2022-12-16T01:33:58.236Z,98764.00
2022-12-16T01:36:27.243Z,98754.00
2022-12-16T01:38:57.672Z,98732.00
2022-12-16T01:41:25.684Z,98749.00
2022-12-16T01:43:55.987Z,98747.00
2022-12-16T01:46:26.585Z,98755.00
2022-12-16T01:49:06.572Z,98737.00
2022-12-16T01:51:40.638Z,98739.00
2022-12-16T01:54:18.819Z,98742.00
2022-12-16T01:57:03.395Z,98740.00
2022-12-16T01:59:35.273Z,98735.00
2022-12-16T02:02:04.859Z,98727.00
2022-12-16T02:04:33.026Z,98732.00
2022-12-16T02:07:03.059Z,98742.00
2022-12-16T02:09:36.496Z,98741.00
2022-12-16T02:12:25.299Z,98730.00
2022-12-16T02:15:15.179Z,98728.00
2022-12-16T02:17:59.054Z,98733.00
2022-12-16T02:21:24.314Z,98721.00
2022-12-16T02:24:47.890Z,98722.00
2022-12-16T02:28:04.248Z,98715.00
2022-12-16T02:31:09.886Z,98732.00
2022-12-16T02:34:01.622Z,98714.00
2022-12-16T02:36:55.643Z,98739.00
2022-12-16T02:39:31.416Z,98720.00
2022-12-16T02:42:12.328Z,98728.00
2022-12-16T02:44:55.964Z,98741.00
2022-12-16T02:47:25.952Z,98738.00
2022-12-16T02:49:57.402Z,98731.00
2022-12-16T02:52:31.735Z,98735.00
2022-12-16T02:55:08.988Z,98732.00
2022-12-16T02:58:04.768Z,98736.00
2022-12-16T03:00:48.184Z,98738.00
2022-12-16T03:03:27.628Z,98728.00
2022-12-16T03:06:02.239Z,98734.00
2022-12-16T03:08:38.540Z,98737.00
2022-12-16T03:11:08.874Z,98705.00
2022-12-16T03:13:44.972Z,98732.00
2022-12-16T03:16:19.625Z,98727.00
2022-12-16T03:18:56.395Z,98735.00
2022-12-16T03:21:41.683Z,98735.00
2022-12-16T03:24:15.336Z,98730.00
2022-12-16T03:26:56.722Z,98734.00
2022-12-16T03:29:42.197Z,98741.00
2022-12-16T03:32:23.637Z,98737.00
2022-12-16T03:35:00.764Z,98731.00
2022-12-16T03:37:37.814Z,98738.00
2022-12-16T03:40:10.945Z,98736.00
2022-12-16T03:42:40.509Z,98738.00
2022-12-16T03:45:14.577Z,98737.00
2022-12-16T03:47:42.609Z,98739.00
2022-12-16T03:50:14.820Z,98733.00
2022-12-16T03:52:42.811Z,98742.00
2022-12-16T03:55:11.923Z,98735.00
2022-12-16T03:57:39.907Z,98730.00
2022-12-16T04:00:12.640Z,98728.00
2022-12-16T04:02:41.556Z,98735.00
2022-12-16T04:05:17.115Z,98730.00
2022-12-16T04:07:46.430Z,98732.00
2022-12-16T04:10:14.875Z,98745.00
2022-12-16T04:13:00.719Z,98737.00
2022-12-16T04:15:46.405Z,98733.00
2022-12-16T04:18:39.787Z,98729.00
2022-12-16T04:21:30.038Z,98742.00
2022-12-16T04:24:16.804Z,98745.00
2022-12-16T04:27:01.504Z,98749.00
2022-12-16T04:29:29.495Z,98749.00
2022-12-16T04:32:02.366Z,98749.00
2022-12-16T04:34:31.125Z,98744.00
2022-12-16T04:40:31.484Z,98748.00
2022-12-16T04:43:17.036Z,98754.00
2022-12-16T04:46:06.601Z,98755.00
2022-12-16T04:48:52.312Z,98760.00
2022-12-16T04:51:38.121Z,98776.00
2022-12-16T04:54:28.889Z,98773.00
2022-12-16T04:57:16.363Z,98778.00
2022-12-16T05:00:10.217Z,98786.00
2022-12-16T05:02:56.911Z,98785.00
2022-12-16T05:05:42.493Z,98801.00
2022-12-16T05:08:29.014Z,98802.00
2022-12-16T05:11:19.431Z,98809.00
2022-12-16T05:14:05.017Z,98802.00
2022-12-16T05:16:53.956Z,98808.00
2022-12-16T05:19:39.622Z,98811.00
2022-12-16T05:22:28.413Z,98808.00
2022-12-16T05:25:15.263Z,98800.00
2022-12-16T05:28:11.196Z,98806.00
2022-12-16T05:30:57.279Z,98801.00
2022-12-16T05:33:46.984Z,98806.00
2022-12-16T05:36:32.472Z,98799.00
2022-12-16T05:39:18.074Z,98803.00
2022-12-16T05:42:04.003Z,98809.00
2022-12-16T05:44:55.742Z,98807.00
2022-12-16T05:47:41.318Z,98811.00
2022-12-16T05:50:27.622Z,98809.00
2022-12-16T05:53:27.836Z,98813.00
2022-12-16T05:56:16.514Z,98818.00
2022-12-16T05:59:02.438Z,98825.00
2022-12-16T06:01:51.515Z,98826.00
2022-12-16T06:04:37.274Z,98834.00
2022-12-16T06:07:22.832Z,98835.00
2022-12-16T06:10:09.960Z,98839.00
2022-12-16T06:12:55.759Z,98838.00
2022-12-16T06:15:57.627Z,98839.00
2022-12-16T06:18:47.849Z,98841.00
2022-12-16T06:21:33.437Z,98841.00
2022-12-16T06:24:20.853Z,98848.00
2022-12-16T06:27:09.834Z,98850.00
2022-12-16T06:29:58.078Z,98850.00
2022-12-16T06:32:43.645Z,98855.00
2022-12-16T06:35:32.554Z,98857.00
2022-12-16T06:38:21.983Z,98863.00
2022-12-16T06:41:03.922Z,98861.00
2022-12-16T06:43:49.595Z,98870.00
2022-12-16T06:46:57.533Z,98869.00
2022-12-16T07:06:56.758Z,98882.00
2022-12-16T07:09:43.324Z,98892.00
2022-12-16T07:12:31.880Z,98893.00
2022-12-16T07:15:17.851Z,98897.00
2022-12-16T07:18:04.457Z,98903.00
2022-12-16T07:20:58.377Z,98895.00
2022-12-16T07:23:50.726Z,98909.00
2022-12-16T07:26:37.549Z,98924.00
2022-12-16T07:29:24.116Z,98923.00
2022-12-16T07:32:11.901Z,98934.00
2022-12-16T07:34:58.572Z,98943.00
2022-12-16T07:37:50.465Z,98944.00
2022-12-16T07:40:41.646Z,98927.00
2022-12-16T07:43:28.612Z,98944.00
2022-12-16T07:46:20.134Z,98958.00
2022-12-16T07:49:05.680Z,98968.00
2022-12-16T07:51:53.551Z,98971.00
2022-12-16T07:54:44.776Z,98968.00
2022-12-16T07:57:34.309Z,98968.00
2022-12-16T08:00:19.926Z,98965.00
2022-12-16T08:03:12.720Z,98975.00
2022-12-16T08:05:58.564Z,98951.00
2022-12-16T08:08:47.730Z,98990.00
2022-12-16T08:11:33.377Z,98980.00
2022-12-16T08:14:20.232Z,98986.00
2022-12-16T08:17:08.130Z,98985.00
2022-12-16T08:19:54.390Z,98989.00
2022-12-16T08:22:43.393Z,98995.00
2022-12-16T08:25:29.202Z,98998.00
2022-12-16T08:28:21.843Z,99016.00
2022-12-16T08:31:10.852Z,99019.00
2022-12-16T08:33:59.320Z,99003.00
2022-12-16T08:36:46.585Z,99025.00
2022-12-16T08:39:33.674Z,99024.00
2022-12-16T08:42:19.240Z,99031.00
2022-12-16T08:45:08.503Z,99021.00
2022-12-16T08:47:59.608Z,99023.00
2022-12-16T08:50:50.405Z,99029.00
2022-12-16T08:53:36.734Z,99039.00
2022-12-16T08:56:24.592Z,99035.00
2022-12-16T08:59:14.257Z,99039.00
2022-12-16T09:01:59.957Z,99044.00
2022-12-16T09:05:02.139Z,99033.00
2022-12-16T09:07:49.093Z,99054.00
2022-12-16T09:10:40.439Z,99051.00
2022-12-16T09:13:32.745Z,99056.00
2022-12-16T09:16:19.856Z,99055.00
2022-12-16T09:19:06.608Z,99069.00
2022-12-16T09:21:54.777Z,99070.00
2022-12-16T09:24:42.946Z,99065.00
2022-12-16T09:27:28.684Z,99065.00
2022-12-16T09:30:14.356Z,99075.00
2022-12-16T09:33:01.591Z,99072.00
2022-12-16T09:35:50.731Z,99082.00
2022-12-16T09:38:40.422Z,99074.00
2022-12-16T09:41:55.592Z,99083.00
2022-12-16T09:44:55.734Z,99055.00
2022-12-16T09:48:00.622Z,99075.00
2022-12-16T09:50:50.783Z,99074.00
2022-12-16T09:57:59.618Z,99090.00
2022-12-16T10:00:51.616Z,99075.00
2022-12-16T10:03:43.459Z,99096.00
2022-12-16T10:06:53.174Z,99111.00
2022-12-16T10:09:56.199Z,99100.00
2022-12-16T10:13:04.174Z,99109.00
2022-12-16T10:16:09.826Z,99100.00
2022-12-16T10:19:10.017Z,99112.00
2022-12-16T10:22:07.014Z,99105.00
2022-12-16T10:25:10.911Z,99110.00
2022-12-16T10:36:43.658Z,99120.00
2022-12-16T10:39:49.795Z,99117.00
2022-12-16T10:42:45.014Z,99112.00
2022-12-16T10:45:46.917Z,99116.00
2022-12-16T10:48:36.721Z,99112.00
2022-12-16T10:51:35.636Z,99119.00
2022-12-16T10:54:59.461Z,99121.00
2022-12-16T10:58:03.640Z,99123.00
2022-12-16T11:01:06.016Z,99128.00
2022-12-16T11:03:58.278Z,99126.00
2022-12-16T11:06:55.206Z,99129.00
2022-12-16T11:09:48.093Z,99126.00
2022-12-16T11:12:41.718Z,99138.00
2022-12-16T11:15:44.398Z,99113.00
2022-12-16T11:18:33.999Z,99140.00
2022-12-16T11:21:41.641Z,99140.00
2022-12-16T11:24:35.295Z,99135.00
2022-12-16T11:27:33.082Z,99128.00
2022-12-16T11:30:24.137Z,99135.00
2022-12-16T11:33:16.205Z,99126.00
2022-12-16T11:36:10.662Z,99114.00
2022-12-16T11:39:03.309Z,99145.00
2022-12-16T11:41:56.771Z,99149.00
2022-12-16T11:44:53.509Z,99153.00
2022-12-16T11:47:55.297Z,99148.00
2022-12-16T11:50:45.896Z,99149.00
2022-12-16T11:53:49.360Z,99150.00
2022-12-16T11:56:41.448Z,99159.00
2022-12-16T11:59:40.377Z,99158.00
2022-12-16T12:02:37.139Z,99161.00
2022-12-16T12:05:25.407Z,99172.00
2022-12-16T12:08:20.622Z,99170.00
2022-12-16T12:11:25.962Z,99153.00
2022-12-16T12:14:29.776Z,99173.00
2022-12-16T12:17:34.552Z,99178.00
2022-12-16T12:20:51.598Z,99175.00
2022-12-16T12:23:55.897Z,99181.00
2022-12-16T12:26:51.669Z,99179.00
2022-12-16T12:29:52.060Z,99185.00
2022-12-16T12:32:55.095Z,99176.00
2022-12-16T12:36:11.401Z,99184.00
2022-12-16T12:39:16.511Z,99175.00
2022-12-16T12:42:20.762Z,99172.00
2022-12-16T12:45:22.049Z,99195.00
2022-12-16T12:48:18.925Z,99188.00
2022-12-16T12:51:26.671Z,99195.00
2022-12-16T12:54:40.104Z,99196.00
2022-12-16T12:57:34.256Z,99203.00
2022-12-16T13:00:35.767Z,99192.00
2022-12-16T13:03:37.315Z,99201.00
2022-12-16T13:06:25.604Z,99217.00
2022-12-16T13:09:18.157Z,99221.00
2022-12-16T13:12:57.159Z,99232.00
2022-12-16T13:15:56.773Z,99234.00
2022-12-16T13:18:52.220Z,99240.00
2022-12-16T13:22:06.293Z,99238.00
2022-12-16T13:25:07.677Z,99251.00
2022-12-16T13:28:18.687Z,99251.00
2022-12-16T13:31:26.944Z,99250.00
2022-12-16T13:34:26.143Z,99260.00
2022-12-16T13:37:25.724Z,99265.00
2022-12-16T13:40:27.134Z,99264.00
2022-12-16T13:43:13.821Z,99239.00
2022-12-16T13:46:02.396Z,99265.00
2022-12-16T13:48:59.487Z,99249.00
2022-12-16T13:52:36.716Z,99276.00
2022-12-16T13:55:33.946Z,99272.00
2022-12-16T13:58:35.836Z,99291.00
2022-12-16T14:01:32.769Z,99264.00
2022-12-16T14:04:32.958Z,99306.00
2022-12-16T14:07:24.861Z,99295.00
2022-12-16T14:10:23.255Z,99300.00
2022-12-16T14:13:21.826Z,99299.00
2022-12-16T14:16:26.011Z,99311.00
2022-12-16T14:19:40.327Z,99313.00
2022-12-16T14:22:53.840Z,99309.00
2022-12-16T14:25:42.771Z,99322.00
2022-12-16T14:28:45.427Z,99332.00
2022-12-16T14:31:37.261Z,99333.00
2022-12-16T14:34:23.763Z,99345.00
2022-12-16T14:37:10.609Z,99356.00
2022-12-16T14:39:59.112Z,99353.00
2022-12-16T14:42:57.653Z,99352.00
2022-12-16T14:45:51.447Z,99356.00
2022-12-16T14:48:55.594Z,99354.00
2022-12-16T14:51:48.184Z,99364.00
2022-12-16T14:54:46.975Z,99361.00
2022-12-16T14:57:36.328Z,99357.00
2022-12-16T15:00:37.788Z,99341.00
2022-12-16T15:03:35.236Z,99366.00
2022-12-16T15:06:26.193Z,99378.00
2022-12-16T15:12:20.526Z,99402.00
2022-12-16T15:15:09.157Z,99395.00
2022-12-16T15:18:09.779Z,99396.00
2022-12-16T15:21:06.635Z,99406.00
2022-12-16T15:24:09.124Z,99401.00
2022-12-16T15:26:55.402Z,99403.00
2022-12-16T15:30:07.544Z,99409.00
2022-12-16T15:32:54.594Z,99419.00
2022-12-16T15:35:53.460Z,99440.00
2022-12-16T15:38:48.201Z,99431.00
2022-12-16T15:41:50.446Z,99434.00
2022-12-16T15:44:39.520Z,99424.00
2022-12-16T15:47:38.965Z,99450.00
2022-12-16T15:50:40.094Z,99460.00
2022-12-16T15:53:49.206Z,99446.00
2022-12-16T15:56:49.022Z,99459.00
2022-12-16T15:59:43.737Z,99463.00
2022-12-16T16:02:44.262Z,99469.00
2022-12-16T16:05:37.111Z,99467.00
2022-12-16T16:08:26.361Z,99466.00
2022-12-16T16:12:13.875Z,99468.00
2022-12-16T16:15:04.205Z,99475.00
2022-12-16T16:17:49.883Z,99469.00
2022-12-16T16:20:39.452Z,99460.00
2022-12-16T16:23:21.557Z,99471.00
2022-12-16T16:26:08.120Z,99468.00
2022-12-16T16:28:54.262Z,99480.00
2022-12-16T16:31:43.962Z,99474.00
2022-12-16T16:34:31.350Z,99476.00
2022-12-16T16:37:18.220Z,99492.00
2022-12-16T16:40:04.757Z,99496.00
2022-12-16T16:42:50.435Z,99496.00
2022-12-16T16:45:37.463Z,99495.00
2022-12-16T16:48:32.257Z,99494.00
2022-12-16T16:51:19.568Z,99487.00
2022-12-16T16:54:05.665Z,99503.00
2022-12-16T16:56:55.759Z,99520.00
2022-12-16T16:59:45.450Z,99510.00
2022-12-16T17:02:43.791Z,99519.00
2022-12-16T17:05:31.554Z,99519.00
2022-12-16T17:08:17.355Z,99526.00
2022-12-16T17:11:06.021Z,99531.00
2022-12-16T17:13:57.012Z,99524.00
2022-12-16T17:16:43.752Z,99524.00
2022-12-16T17:19:29.328Z,99543.00
2022-12-16T17:22:15.166Z,99532.00
2022-12-16T17:25:06.577Z,99525.00
2022-12-16T17:27:55.461Z,99529.00
2022-12-16T17:30:46.827Z,99535.00
2022-12-16T17:33:35.474Z,99539.00
2022-12-16T17:36:30.011Z,99548.00
2022-12-16T17:39:23.821Z,99551.00
2022-12-16T17:42:10.139Z,99547.00
2022-12-16T17:44:55.732Z,99554.00
2022-12-16T17:47:42.124Z,99557.00
2022-12-16T17:50:30.948Z,99554.00
2022-12-16T17:53:17.875Z,99570.00
2022-12-16T17:56:06.770Z,99573.00
2022-12-16T17:58:59.337Z,99577.00
2022-12-16T18:01:45.203Z,99579.00
2022-12-16T18:04:31.262Z,99576.00
2022-12-16T18:07:16.788Z,99580.00
2022-12-16T18:10:02.282Z,99583.00
2022-12-16T18:12:51.533Z,99590.00
2022-12-16T18:15:37.371Z,99596.00
2022-12-16T18:18:26.324Z,99594.00
2022-12-16T18:21:12.255Z,99595.00
2022-12-16T18:23:59.974Z,99601.00
2022-12-16T18:26:45.932Z,99604.00
2022-12-16T18:29:34.861Z,99607.00
2022-12-16T18:32:20.737Z,99603.00
2022-12-16T18:35:06.203Z,99601.00
2022-12-16T18:37:51.820Z,99598.00
2022-12-16T18:40:39.143Z,99602.00
2022-12-16T18:43:30.190Z,99613.00
2022-12-16T18:46:17.297Z,99618.00
2022-12-16T18:49:15.731Z,99613.00
2022-12-16T18:52:01.386Z,99616.00
2022-12-16T18:54:46.998Z,99608.00
2022-12-16T18:57:39.845Z,99617.00
2022-12-16T19:00:27.683Z,99619.00
2022-12-16T19:03:15.050Z,99613.00
2022-12-16T19:06:01.073Z,99623.00
2022-12-16T19:08:49.624Z,99625.00
2022-12-16T19:14:36.326Z,99627.00
2022-12-16T19:17:27.163Z,99626.00
2022-12-16T19:20:33.009Z,99634.00
2022-12-16T19:23:20.909Z,99640.00
2022-12-16T19:26:11.034Z,99639.00
2022-12-16T19:29:01.802Z,99638.00
2022-12-16T19:31:49.623Z,99649.00
2022-12-16T19:34:36.808Z,99647.00
2022-12-16T19:37:26.335Z,99651.00
2022-12-16T19:40:11.869Z,99657.00
2022-12-16T19:45:59.984Z,99655.00
2022-12-16T19:48:52.465Z,99658.00
2022-12-16T19:51:42.618Z,99666.00
2022-12-16T19:54:31.556Z,99674.00
2022-12-16T19:57:17.214Z,99676.00
2022-12-16T20:00:03.196Z,99686.00
2022-12-16T20:02:57.758Z,99693.00
2022-12-16T20:05:43.773Z,99691.00
2022-12-16T20:08:32.616Z,99695.00
2022-12-16T20:11:34.032Z,99705.00
2022-12-16T20:14:21.148Z,99704.00
2022-12-16T20:17:12.230Z,99716.00
2022-12-16T20:20:00.179Z,99713.00
2022-12-16T20:22:48.815Z,99713.00
2022-12-16T20:25:36.843Z,99702.00
2022-12-16T20:28:25.860Z,99709.00
2022-12-16T20:31:11.745Z,99710.00
2022-12-16T20:34:02.892Z,99688.00
2022-12-16T20:36:56.535Z,99727.00
2022-12-16T20:39:42.301Z,99728.00
2022-12-16T20:42:28.320Z,99732.00
2022-12-16T20:45:16.484Z,99729.00
2022-12-16T20:48:02.188Z,99741.00
2022-12-16T20:50:47.721Z,99723.00
2022-12-16T20:53:37.900Z,99744.00
2022-12-16T20:56:24.404Z,99739.00
2022-12-16T20:59:13.203Z,99748.00
2022-12-16T21:02:22.697Z,99747.00
2022-12-16T21:05:07.070Z,99753.00
2022-12-16T21:07:57.170Z,99744.00
2022-12-16T21:10:42.964Z,99755.00
2022-12-16T21:16:46.395Z,99770.00
2022-12-16T21:19:36.522Z,99764.00
2022-12-16T21:22:26.980Z,99767.00
2022-12-16T21:25:19.745Z,99779.00
2022-12-16T21:28:09.742Z,99784.00
2022-12-16T21:30:59.662Z,99788.00
2022-12-16T21:33:46.188Z,99787.00
2022-12-16T21:36:33.806Z,99785.00
2022-12-16T21:39:19.547Z,99788.00
2022-12-16T21:42:07.291Z,99788.00
2022-12-16T21:45:02.768Z,99799.00
2022-12-16T21:47:51.527Z,99798.00
2022-12-16T21:50:38.394Z,99797.00
2022-12-16T21:53:31.952Z,99802.00
2022-12-16T21:56:18.001Z,99805.00
2022-12-16T21:59:03.690Z,99817.00
2022-12-16T22:01:51.336Z,99798.00
2022-12-16T22:04:39.425Z,99817.00
2022-12-16T22:07:25.049Z,99813.00
2022-12-16T22:10:12.169Z,99825.00
2022-12-16T22:12:58.886Z,99826.00
2022-12-16T22:15:46.792Z,99822.00
2022-12-16T22:18:38.846Z,99829.00
2022-12-16T22:21:30.588Z,99837.00
2022-12-16T22:24:16.881Z,99833.00
2022-12-16T22:27:05.308Z,99826.00
2022-12-16T22:29:52.854Z,99837.00
2022-12-16T22:32:42.483Z,99834.00
2022-12-16T22:35:27.910Z,99834.00
2022-12-16T22:38:14.106Z,99825.00
2022-12-16T22:40:59.776Z,99844.00
2022-12-16T22:43:52.321Z,99849.00
2022-12-16T22:46:38.934Z,99854.00
2022-12-16T22:49:27.739Z,99851.00
2022-12-16T22:52:13.335Z,99859.00
2022-12-16T22:54:58.928Z,99860.00
2022-12-16T22:57:50.878Z,99858.00
2022-12-16T23:00:40.268Z,99866.00
2022-12-16T23:03:35.440Z,99863.00
2022-12-16T23:06:21.641Z,99857.00
2022-12-16T23:09:07.226Z,99860.00
2022-12-16T23:11:58.892Z,99857.00
2022-12-16T23:14:44.429Z,99864.00
2022-12-16T23:17:32.585Z,99859.00
2022-12-16T23:20:18.126Z,99864.00
2022-12-16T23:23:06.658Z,99857.00
2022-12-16T23:25:53.927Z,99876.00
2022-12-16T23:28:39.786Z,99878.00
2022-12-16T23:31:25.444Z,99866.00
2022-12-16T23:34:15.196Z,99884.00
2022-12-16T23:37:00.766Z,99874.00
2022-12-16T23:39:46.317Z,99873.00
2022-12-16T23:42:33.884Z,99883.00
2022-12-16T23:45:22.929Z,99881.00
2022-12-16T23:48:20.320Z,99893.00
2022-12-16T23:51:09.832Z,99890.00
2022-12-16T23:53:58.147Z,99891.00
2022-12-16T23:56:44.496Z,99904.00
2022-12-16T23:59:39.466Z,99901.00
